KAKR/AKR METAR and TAF weather

Enter ICAO airport designator
Station Type Date Time Source
KAKR METAR 2018/07/21 11:36 UTC NOAA

KAKR 211136Z AUTO 16007KT 10SM FEW017 SCT025 OVC043 21/17 A2982 RMK AO2 T02060167


Station Type Date Time Source
KAKR Decoded METAR 2018/07/21 11:36 UTC NOAA

AKRON FULTON INTERNATIONAL, OH, United States (KAKR) 41-02N 081-28W 363M
Jul 21, 2018 - 07:36 AM EDT / 2018.07.21 1136 UTC
Wind: from the SSE (160 degrees) at 8 MPH (7 KT):0
Visibility: 10 mile(s):0
Sky conditions: overcast
Temperature: 69.1 F (20.6 C)
Dew Point: 62.1 F (16.7 C)
Relative Humidity: 78%
Pressure (altimeter): 29.82 in. Hg (1009 hPa)
ob: KAKR 211136Z AUTO 16007KT 10SM FEW017 SCT025 OVC043 21/17 A2982 RMK AO2 T02060167
cycle: 11

Station Type Date Time Source
KAKR TAF UTC NOAA

Error!


Example: see airport list